sensor_id;sensor_type;location;lat;lon;timestamp;pressure;altitude;pressure_sealevel;temperature;humidity
21449;BME280;10885;52.830;13.788;2023-02-04T06:09:13;102831.41;;;0.32;90.37
21449;BME280;10885;52.830;13.788;2023-02-04T06:14:34;102847.31;;;0.26;89.54
21449;BME280;10885;52.830;13.788;2023-02-04T06:19:55;102848.41;;;0.28;88.46
21449;BME280;10885;52.830;13.788;2023-02-04T06:25:17;102853.38;;;0.33;88.13
21449;BME280;10885;52.830;13.788;2023-02-04T06:30:37;102862.16;;;0.30;88.43
21449;BME280;10885;52.830;13.788;2023-02-04T06:35:58;102871.34;;;0.29;87.84
21449;BME280;10885;52.830;13.788;2023-02-04T06:41:19;102881.84;;;0.32;88.21
21449;BME280;10885;52.830;13.788;2023-02-04T06:46:40;102887.66;;;0.26;87.91
21449;BME280;10885;52.830;13.788;2023-02-04T06:52:00;102879.19;;;0.25;88.35
21449;BME280;10885;52.830;13.788;2023-02-04T06:57:21;102883.84;;;0.22;88.13
21449;BME280;10885;52.830;13.788;2023-02-04T07:02:42;102884.66;;;0.28;88.56
21449;BME280;10885;52.830;13.788;2023-02-04T07:08:04;102893.97;;;0.35;88.95
21449;BME280;10885;52.830;13.788;2023-02-04T07:13:25;102901.16;;;0.45;88.50
21449;BME280;10885;52.830;13.788;2023-02-04T07:18:46;102914.50;;;0.56;88.30
21449;BME280;10885;52.830;13.788;2023-02-04T07:24:07;102920.22;;;0.74;88.15
21449;BME280;10885;52.830;13.788;2023-02-04T07:29:28;102930.38;;;0.99;87.30
21449;BME280;10885;52.830;13.788;2023-02-04T07:34:48;102935.91;;;1.23;86.90
21449;BME280;10885;52.830;13.788;2023-02-04T07:40:10;102941.38;;;1.26;85.77
21449;BME280;10885;52.830;13.788;2023-02-04T07:45:32;102953.19;;;1.45;84.49
21449;BME280;10885;52.830;13.788;2023-02-04T07:50:52;102976.28;;;1.99;84.12
21449;BME280;10885;52.830;13.788;2023-02-04T07:56:13;102984.75;;;2.46;82.29
21449;BME280;10885;52.830;13.788;2023-02-04T08:01:34;102997.09;;;2.90;79.36
21449;BME280;10885;52.830;13.788;2023-02-04T08:06:56;103007.72;;;3.54;77.93
21449;BME280;10885;52.830;13.788;2023-02-04T08:12:17;103023.91;;;5.10;71.89
21449;BME280;10885;52.830;13.788;2023-02-04T08:17:38;103026.94;;;7.46;62.83
21449;BME280;10885;52.830;13.788;2023-02-04T08:22:59;103041.06;;;9.38;55.81
21449;BME280;10885;52.830;13.788;2023-02-04T08:28:21;103044.50;;;11.87;48.90
21449;BME280;10885;52.830;13.788;2023-02-04T08:33:41;103047.88;;;14.25;41.46
21449;BME280;10885;52.830;13.788;2023-02-04T08:39:02;103056.72;;;16.76;35.98
21449;BME280;10885;52.830;13.788;2023-02-04T08:44:24;103059.66;;;16.92;35.16
21449;BME280;10885;52.830;13.788;2023-02-04T08:49:45;103058.56;;;18.56;31.72
21449;BME280;10885;52.830;13.788;2023-02-04T08:55:06;103060.84;;;17.34;32.13
21449;BME280;10885;52.830;13.788;2023-02-04T09:00:27;103061.25;;;15.62;35.50
21449;BME280;10885;52.830;13.788;2023-02-04T09:05:48;103076.03;;;14.01;37.79
21449;BME280;10885;52.830;13.788;2023-02-04T09:11:09;103076.91;;;13.50;38.72
21449;BME280;10885;52.830;13.788;2023-02-04T09:16:32;103078.72;;;13.72;38.18
21449;BME280;10885;52.830;13.788;2023-02-04T09:21:53;103092.00;;;13.77;39.44
21449;BME280;10885;52.830;13.788;2023-02-04T09:27:14;103096.16;;;14.68;34.75
21449;BME280;10885;52.830;13.788;2023-02-04T09:32:35;103113.00;;;9.74;45.22
21449;BME280;10885;52.830;13.788;2023-02-04T09:37:56;103126.19;;;7.91;49.66
21449;BME280;10885;52.830;13.788;2023-02-04T09:43:21;103141.41;;;6.08;54.70
21449;BME280;10885;52.830;13.788;2023-02-04T09:48:45;103138.16;;;6.46;55.43
21449;BME280;10885;52.830;13.788;2023-02-04T09:54:11;103144.59;;;7.10;53.00
21449;BME280;10885;52.830;13.788;2023-02-04T09:59:34;103137.31;;;7.91;49.52
21449;BME280;10885;52.830;13.788;2023-02-04T10:04:56;103141.25;;;7.65;50.98
21449;BME280;10885;52.830;13.788;2023-02-04T10:10:20;103150.91;;;7.83;51.89
21449;BME280;10885;52.830;13.788;2023-02-04T10:15:41;103153.06;;;6.57;52.80
21449;BME280;10885;52.830;13.788;2023-02-04T10:21:17;103149.22;;;6.09;53.42
21449;BME280;10885;52.830;13.788;2023-02-04T10:26:39;103159.97;;;6.00;55.45
21449;BME280;10885;52.830;13.788;2023-02-04T10:32:00;103162.34;;;6.05;54.57
21449;BME280;10885;52.830;13.788;2023-02-04T10:37:21;103161.94;;;5.16;55.67
21449;BME280;10885;52.830;13.788;2023-02-04T10:42:46;103169.53;;;4.46;59.20
21449;BME280;10885;52.830;13.788;2023-02-04T10:48:14;103173.41;;;4.22;60.48
21449;BME280;10885;52.830;13.788;2023-02-04T10:53:36;103175.78;;;4.69;59.27
21449;BME280;10885;52.830;13.788;2023-02-04T10:59:22;103174.69;;;5.73;56.03
21449;BME280;10885;52.830;13.788;2023-02-04T11:04:46;103168.75;;;7.44;49.70
21449;BME280;10885;52.830;13.788;2023-02-04T11:10:31;103171.25;;;8.45;43.27
21449;BME280;10885;52.830;13.788;2023-02-04T11:27:17;103189.47;;;4.84;47.19
21449;BME280;10885;52.830;13.788;2023-02-04T11:32:39;103194.53;;;4.43;50.23
21449;BME280;10885;52.830;13.788;2023-02-04T11:38:01;103209.47;;;4.54;52.11
21449;BME280;10885;52.830;13.788;2023-02-04T11:43:22;103203.09;;;4.92;50.30
21449;BME280;10885;52.830;13.788;2023-02-04T11:48:43;103219.81;;;4.55;52.37
21449;BME280;10885;52.830;13.788;2023-02-04T11:54:04;103228.84;;;4.19;53.56
21449;BME280;10885;52.830;13.788;2023-02-04T11:59:25;103227.03;;;4.80;51.26
21449;BME280;10885;52.830;13.788;2023-02-04T12:04:50;103232.28;;;5.30;50.63
21449;BME280;10885;52.830;13.788;2023-02-04T12:15:36;103224.13;;;4.49;51.10
21449;BME280;10885;52.830;13.788;2023-02-04T12:20:57;103231.47;;;4.61;51.99
21449;BME280;10885;52.830;13.788;2023-02-04T12:26:18;103221.94;;;4.80;49.61
21449;BME280;10885;52.830;13.788;2023-02-04T12:31:39;103222.66;;;6.35;47.00
21449;BME280;10885;52.830;13.788;2023-02-04T12:36:59;103230.00;;;8.29;41.55
21449;BME280;10885;52.830;13.788;2023-02-04T12:42:20;103232.38;;;7.43;42.05
21449;BME280;10885;52.830;13.788;2023-02-04T12:47:41;103232.13;;;4.87;48.64
21449;BME280;10885;52.830;13.788;2023-02-04T12:53:03;103235.03;;;4.48;50.73
21449;BME280;10885;52.830;13.788;2023-02-04T12:58:25;103247.97;;;3.83;55.46
21449;BME280;10885;52.830;13.788;2023-02-04T13:03:46;103250.88;;;3.66;55.41
21449;BME280;10885;52.830;13.788;2023-02-04T13:09:07;103238.59;;;5.26;51.16
21449;BME280;10885;52.830;13.788;2023-02-04T13:14:28;103246.44;;;5.35;49.32
21449;BME280;10885;52.830;13.788;2023-02-04T13:19:48;103249.94;;;6.43;46.08
21449;BME280;10885;52.830;13.788;2023-02-04T13:25:09;103252.28;;;8.07;42.62
21449;BME280;10885;52.830;13.788;2023-02-04T13:30:35;103253.41;;;6.88;41.98
21449;BME280;10885;52.830;13.788;2023-02-04T13:35:56;103249.53;;;6.62;42.46
21449;BME280;10885;52.830;13.788;2023-02-04T13:41:17;103272.78;;;4.52;47.67
21449;BME280;10885;52.830;13.788;2023-02-04T13:46:38;103283.16;;;3.87;50.17
21449;BME280;10885;52.830;13.788;2023-02-04T13:52:00;103289.28;;;4.02;50.59
21449;BME280;10885;52.830;13.788;2023-02-04T13:57:21;103281.84;;;3.43;53.27
21449;BME280;10885;52.830;13.788;2023-02-04T14:02:42;103292.06;;;2.92;55.37
21449;BME280;10885;52.830;13.788;2023-02-04T14:08:03;103299.78;;;2.73;56.52
21449;BME280;10885;52.830;13.788;2023-02-04T14:13:24;103313.94;;;2.40;57.08
21449;BME280;10885;52.830;13.788;2023-02-04T14:18:46;103310.06;;;3.59;53.20
21449;BME280;10885;52.830;13.788;2023-02-04T14:24:06;103298.63;;;4.15;48.29
21449;BME280;10885;52.830;13.788;2023-02-04T14:29:27;103316.53;;;4.30;49.88
21449;BME280;10885;52.830;13.788;2023-02-04T14:34:48;103313.53;;;3.14;49.82
21449;BME280;10885;52.830;13.788;2023-02-04T14:40:10;103323.69;;;2.50;52.78
21449;BME280;10885;52.830;13.788;2023-02-04T14:45:31;103334.78;;;2.19;53.58
21449;BME280;10885;52.830;13.788;2023-02-04T14:50:52;103345.09;;;2.21;54.98
21449;BME280;10885;52.830;13.788;2023-02-04T14:56:13;103339.47;;;1.97;57.66
21449;BME280;10885;52.830;13.788;2023-02-04T15:01:34;103346.03;;;1.71;58.63
21449;BME280;10885;52.830;13.788;2023-02-04T15:06:55;103359.63;;;1.85;58.57
21449;BME280;10885;52.830;13.788;2023-02-04T15:12:17;103353.19;;;1.50;58.81
21449;BME280;10885;52.830;13.788;2023-02-04T15:17:37;103366.69;;;1.13;59.13
21449;BME280;10885;52.830;13.788;2023-02-04T15:22:58;103373.56;;;1.14;57.92
21449;BME280;10885;52.830;13.788;2023-02-04T15:28:20;103377.50;;;0.88;57.50
21449;BME280;10885;52.830;13.788;2023-02-04T15:33:42;103383.91;;;0.68;57.92
21449;BME280;10885;52.830;13.788;2023-02-04T15:39:03;103383.00;;;0.62;58.51
21449;BME280;10885;52.830;13.788;2023-02-04T15:44:24;103386.50;;;0.56;59.11
21449;BME280;10885;52.830;13.788;2023-02-04T15:49:46;103394.66;;;0.37;59.18
21449;BME280;10885;52.830;13.788;2023-02-04T15:55:07;103404.78;;;0.31;60.01
21449;BME280;10885;52.830;13.788;2023-02-04T16:00:28;103405.91;;;0.33;59.50
21449;BME280;10885;52.830;13.788;2023-02-04T16:05:49;103415.16;;;0.22;60.29
21449;BME280;10885;52.830;13.788;2023-02-04T16:11:11;103412.63;;;0.22;60.32
21449;BME280;10885;52.830;13.788;2023-02-04T16:16:33;103416.88;;;0.04;60.52
21449;BME280;10885;52.830;13.788;2023-02-04T16:21:54;103410.53;;;-0.11;60.62
21449;BME280;10885;52.830;13.788;2023-02-04T16:27:15;103413.13;;;-0.28;62.06
21449;BME280;10885;52.830;13.788;2023-02-04T16:32:36;103418.38;;;-0.26;61.36
21449;BME280;10885;52.830;13.788;2023-02-04T16:37:57;103420.28;;;-0.48;62.49
21449;BME280;10885;52.830;13.788;2023-02-04T16:43:18;103415.03;;;-0.49;62.71
21449;BME280;10885;52.830;13.788;2023-02-04T16:48:39;103419.16;;;-0.55;62.82
21449;BME280;10885;52.830;13.788;2023-02-04T16:54:00;103424.94;;;-0.73;62.49
21449;BME280;10885;52.830;13.788;2023-02-04T16:59:21;103437.06;;;-0.88;63.06
21449;BME280;10885;52.830;13.788;2023-02-04T17:04:42;103444.19;;;-0.96;63.58
21449;BME280;10885;52.830;13.788;2023-02-04T17:10:03;103454.47;;;-1.12;64.54
21449;BME280;10885;52.830;13.788;2023-02-04T17:15:24;103456.06;;;-1.18;65.00
21449;BME280;10885;52.830;13.788;2023-02-04T17:20:45;103461.81;;;-1.13;66.07
21449;BME280;10885;52.830;13.788;2023-02-04T17:26:06;103463.38;;;-1.20;65.51
21449;BME280;10885;52.830;13.788;2023-02-04T17:31:26;103459.72;;;-1.33;66.05
21449;BME280;10885;52.830;13.788;2023-02-04T17:36:47;103473.44;;;-1.42;67.00
21449;BME280;10885;52.830;13.788;2023-02-04T17:42:08;103477.78;;;-1.47;67.16
21449;BME280;10885;52.830;13.788;2023-02-04T17:47:29;103486.44;;;-1.56;67.26
21449;BME280;10885;52.830;13.788;2023-02-04T17:52:49;103482.31;;;-1.61;68.17
21449;BME280;10885;52.830;13.788;2023-02-04T17:58:15;103492.16;;;-1.63;67.87
21449;BME280;10885;52.830;13.788;2023-02-04T18:03:36;103486.41;;;-1.62;68.04
21449;BME280;10885;52.830;13.788;2023-02-04T18:08:57;103493.47;;;-1.76;68.79
21449;BME280;10885;52.830;13.788;2023-02-04T18:14:26;103498.69;;;-1.86;68.92
21449;BME280;10885;52.830;13.788;2023-02-04T18:19:47;103500.31;;;-1.81;69.09
21449;BME280;10885;52.830;13.788;2023-02-04T18:25:15;103503.94;;;-1.84;68.96
21449;BME280;10885;52.830;13.788;2023-02-04T18:30:39;103513.97;;;-1.90;69.40
21449;BME280;10885;52.830;13.788;2023-02-04T18:36:01;103520.41;;;-1.86;69.54
21449;BME280;10885;52.830;13.788;2023-02-04T18:41:31;103513.47;;;-2.04;70.27
21449;BME280;10885;52.830;13.788;2023-02-04T18:46:53;103513.91;;;-2.07;69.85
21449;BME280;10885;52.830;13.788;2023-02-04T18:52:19;103518.69;;;-2.08;68.68
21449;BME280;10885;52.830;13.788;2023-02-04T18:57:40;103521.66;;;-2.11;68.10
21449;BME280;10885;52.830;13.788;2023-02-04T19:03:31;103524.34;;;-2.21;67.43
21449;BME280;10885;52.830;13.788;2023-02-04T19:14:42;103524.59;;;-2.13;66.27
21449;BME280;10885;52.830;13.788;2023-02-04T19:20:16;103522.03;;;-2.25;66.44
21449;BME280;10885;52.830;13.788;2023-02-04T19:25:45;103525.44;;;-2.24;66.19
21449;BME280;10885;52.830;13.788;2023-02-04T19:31:07;103528.22;;;-2.17;65.76
21449;BME280;10885;52.830;13.788;2023-02-04T19:36:32;103519.16;;;-2.11;65.91
21449;BME280;10885;52.830;13.788;2023-02-04T19:41:55;103525.75;;;-2.11;65.41
21449;BME280;10885;52.830;13.788;2023-02-04T19:47:40;103532.34;;;-2.17;65.89
21449;BME280;10885;52.830;13.788;2023-02-04T19:53:17;103544.16;;;-2.28;66.35
21449;BME280;10885;52.830;13.788;2023-02-04T19:58:41;103536.13;;;-2.36;67.23
21449;BME280;10885;52.830;13.788;2023-02-04T20:04:05;103549.44;;;-2.53;67.70
21449;BME280;10885;52.830;13.788;2023-02-04T20:09:32;103549.63;;;-2.63;68.62
21449;BME280;10885;52.830;13.788;2023-02-04T20:14:58;103537.63;;;-2.75;70.15
21449;BME280;10885;52.830;13.788;2023-02-04T20:20:25;103554.50;;;-2.80;70.42
21449;BME280;10885;52.830;13.788;2023-02-04T20:25:48;103556.22;;;-2.90;71.12
21449;BME280;10885;52.830;13.788;2023-02-04T20:31:23;103549.13;;;-2.92;71.38
21449;BME280;10885;52.830;13.788;2023-02-04T20:36:44;103555.97;;;-3.12;72.51
21449;BME280;10885;52.830;13.788;2023-02-04T20:47:40;103565.03;;;-3.18;72.97
21449;BME280;10885;52.830;13.788;2023-02-04T20:53:04;103571.13;;;-3.28;73.50
21449;BME280;10885;52.830;13.788;2023-02-04T20:58:27;103562.56;;;-3.40;74.29
21449;BME280;10885;52.830;13.788;2023-02-04T21:03:48;103567.69;;;-3.49;74.85
21449;BME280;10885;52.830;13.788;2023-02-04T21:09:21;103561.84;;;-3.60;74.89
21449;BME280;10885;52.830;13.788;2023-02-04T21:14:43;103559.09;;;-3.61;75.17
21449;BME280;10885;52.830;13.788;2023-02-04T21:20:04;103564.63;;;-3.58;75.23
21449;BME280;10885;52.830;13.788;2023-02-04T21:25:25;103564.53;;;-3.64;75.42
21449;BME280;10885;52.830;13.788;2023-02-04T21:30:47;103562.31;;;-3.77;75.82
21449;BME280;10885;52.830;13.788;2023-02-04T21:36:07;103556.66;;;-3.92;76.57
21449;BME280;10885;52.830;13.788;2023-02-04T21:41:28;103561.81;;;-3.96;76.67
21449;BME280;10885;52.830;13.788;2023-02-04T21:46:49;103567.88;;;-4.05;76.79
21449;BME280;10885;52.830;13.788;2023-02-04T21:52:10;103578.22;;;-4.13;76.88
21449;BME280;10885;52.830;13.788;2023-02-04T21:57:32;103585.75;;;-4.13;77.68
21449;BME280;10885;52.830;13.788;2023-02-04T22:02:53;103588.91;;;-4.14;77.97
21449;BME280;10885;52.830;13.788;2023-02-04T22:08:14;103583.72;;;-4.10;78.09
21449;BME280;10885;52.830;13.788;2023-02-04T22:13:35;103585.88;;;-4.33;78.76
21449;BME280;10885;52.830;13.788;2023-02-04T22:18:56;103594.53;;;-4.46;79.53
